UAUU

Kostanay West Airport

Kostanay, Kazakhstan
TAF UAUU 240200Z 2403/2412 18007MPS 9999 BKN020 TEMPO 2403/2412 20013MPS
Issued Valid From Valid To
Oct-24 @ 02:00 UTC
(3 hours ago)
Oct-24 @ 03:00 UTC
(2 hours ago)
Oct-24 @ 12:00 UTC
(in 7 hours)
Oct-24 @ 03:00 to Oct-24 @ 12:00
TAF UAUU 240200Z 2403/2412 18007MPS 9999 BKN020
Wind Visibility Clouds
180° at 14 knots 10,000+ meters
  • Broken at 2,000' AGL
Temporary Oct-24 @ 03:00 to Oct-24 @ 12:00
TEMPO 2403/2412 20013MPS
Wind
200° at 25 knots
TAF UAUU 240200Z 2403/2412 18007MPS 9999 BKN020 TEMPO 2403/2412 20013MPS
Issued Oct-24 @ 02:00 UTC
(3 hours ago)
Valid From Oct-24 @ 03:00 UTC
(2 hours ago)
Valid To Oct-24 @ 12:00 UTC
(in 7 hours)
Oct-24 @ 03:00 - Oct-24 @ 12:00
Wind Visibility
180° at 14 knots 10,000+ meters
Clouds
  • Broken at 2,000' AGL
Temporary Oct-24 @ 03:00 - Oct-24 @ 12:00
Wind
200° at 25 knots